createdAt,value
2022-07-31T00:00:06.697Z,13.49
2022-07-31T00:02:59.545Z,13.42
2022-07-31T00:05:46.834Z,13.40
2022-07-31T00:08:34.201Z,13.32
2022-07-31T00:11:21.389Z,13.32
2022-07-31T00:14:08.689Z,13.24
2022-07-31T00:16:55.672Z,13.26
2022-07-31T00:19:42.706Z,13.23
2022-07-31T00:22:30.017Z,13.10
2022-07-31T00:25:17.253Z,13.02
2022-07-31T00:28:04.708Z,13.00
2022-07-31T00:30:51.791Z,13.11
2022-07-31T00:33:38.917Z,12.82
2022-07-31T00:36:28.987Z,13.05
2022-07-31T00:39:19.614Z,13.01
2022-07-31T00:42:07.347Z,12.63
2022-07-31T00:44:54.276Z,12.96
2022-07-31T00:47:42.230Z,12.78
2022-07-31T00:50:29.817Z,12.82
2022-07-31T00:53:16.646Z,12.79
2022-07-31T00:56:04.232Z,12.70
2022-07-31T00:58:51.224Z,12.80
2022-07-31T01:01:38.255Z,12.76
2022-07-31T01:04:25.153Z,12.59
2022-07-31T01:07:13.549Z,12.68
2022-07-31T01:10:00.740Z,12.68
2022-07-31T01:12:56.868Z,12.39
2022-07-31T01:15:45.320Z,12.52
2022-07-31T01:18:34.382Z,12.59
2022-07-31T01:21:25.729Z,12.57
2022-07-31T01:24:41.554Z,12.57
2022-07-31T01:27:51.034Z,12.56
2022-07-31T01:30:40.101Z,12.44
2022-07-31T01:33:32.306Z,12.40
2022-07-31T01:36:30.704Z,12.51
2022-07-31T01:39:18.173Z,12.48
2022-07-31T01:42:07.466Z,12.35
2022-07-31T01:45:04.350Z,12.13
2022-07-31T01:47:52.953Z,12.27
2022-07-31T01:50:44.389Z,12.42
2022-07-31T01:53:40.059Z,12.39
2022-07-31T01:56:28.018Z,12.42
2022-07-31T01:59:20.523Z,12.40
2022-07-31T02:02:42.388Z,12.36
2022-07-31T02:05:31.720Z,12.35
2022-07-31T02:08:19.631Z,12.35
2022-07-31T02:11:07.791Z,12.33
2022-07-31T02:13:57.654Z,11.99
2022-07-31T02:16:47.286Z,12.29
2022-07-31T02:19:55.376Z,12.27
2022-07-31T02:22:48.106Z,11.94
2022-07-31T02:25:35.093Z,12.16
2022-07-31T02:28:27.498Z,11.89
2022-07-31T02:31:15.027Z,12.17
2022-07-31T02:34:06.962Z,12.21
2022-07-31T02:36:54.648Z,12.20
2022-07-31T02:39:45.342Z,11.90
2022-07-31T02:42:33.116Z,12.19
2022-07-31T02:45:22.046Z,12.16
2022-07-31T02:48:09.333Z,11.82
2022-07-31T02:50:59.857Z,12.10
2022-07-31T02:53:47.163Z,12.11
2022-07-31T02:56:34.770Z,12.09
2022-07-31T02:59:21.976Z,12.09
2022-07-31T03:02:19.725Z,12.05
2022-07-31T03:05:06.821Z,12.05
2022-07-31T03:07:53.913Z,11.96
2022-07-31T03:10:41.985Z,11.88
2022-07-31T03:13:29.097Z,11.98
2022-07-31T03:16:17.445Z,11.98
2022-07-31T03:19:05.608Z,11.97
2022-07-31T03:21:53.021Z,11.97
2022-07-31T03:24:40.674Z,11.97
2022-07-31T03:27:29.114Z,11.91
2022-07-31T03:30:16.358Z,11.98
2022-07-31T03:33:03.412Z,11.98
2022-07-31T03:35:52.735Z,11.74
2022-07-31T03:38:43.152Z,11.83
2022-07-31T03:41:43.653Z,11.74
2022-07-31T03:44:31.921Z,12.10
2022-07-31T03:47:19.780Z,12.13
2022-07-31T03:50:07.965Z,12.16
2022-07-31T03:52:35.962Z,11.67
2022-07-31T03:55:03.545Z,12.19
2022-07-31T03:57:34.151Z,12.27
2022-07-31T04:00:03.509Z,12.29
2022-07-31T04:02:33.121Z,12.27
2022-07-31T04:05:24.037Z,12.19
2022-07-31T04:07:51.360Z,12.10
2022-07-31T04:10:19.743Z,12.44
2022-07-31T04:12:46.914Z,12.49
2022-07-31T04:15:17.039Z,12.43
2022-07-31T04:17:45.266Z,12.61
2022-07-31T04:20:15.756Z,12.47
2022-07-31T04:22:42.934Z,12.63
2022-07-31T04:25:18.520Z,12.68
2022-07-31T04:28:05.729Z,12.78
2022-07-31T04:30:33.181Z,12.83
2022-07-31T04:33:00.413Z,12.86
2022-07-31T04:35:27.928Z,12.92
2022-07-31T04:37:55.051Z,12.90
2022-07-31T04:40:23.293Z,13.01
2022-07-31T04:42:50.336Z,12.99
2022-07-31T04:45:17.544Z,13.11
2022-07-31T04:47:44.625Z,13.03
2022-07-31T04:50:11.753Z,13.20
2022-07-31T04:52:54.763Z,13.25
2022-07-31T04:55:24.346Z,13.30
2022-07-31T04:57:51.360Z,13.24
2022-07-31T05:00:18.502Z,13.39
2022-07-31T05:02:45.850Z,13.38
2022-07-31T05:05:13.133Z,13.50
2022-07-31T05:07:42.731Z,13.37
2022-07-31T05:10:34.388Z,13.61
2022-07-31T05:13:02.064Z,13.64
2022-07-31T05:15:29.160Z,13.74
2022-07-31T05:17:56.861Z,13.81
2022-07-31T05:20:47.613Z,13.88
2022-07-31T05:23:33.308Z,13.93
2022-07-31T05:26:11.069Z,14.01
2022-07-31T05:28:38.792Z,14.08
2022-07-31T05:31:08.013Z,14.05
2022-07-31T05:33:35.821Z,14.12
2022-07-31T05:36:03.245Z,14.14
2022-07-31T05:38:30.305Z,14.39
2022-07-31T05:41:16.759Z,14.47
2022-07-31T05:44:22.320Z,14.57
2022-07-31T05:49:17.168Z,14.68
2022-07-31T05:51:47.337Z,14.75
2022-07-31T05:54:14.635Z,14.81
2022-07-31T05:57:00.577Z,14.64
2022-07-31T05:59:40.494Z,14.82
2022-07-31T06:02:08.060Z,14.98
2022-07-31T06:04:55.506Z,15.07
2022-07-31T06:07:23.575Z,15.18
2022-07-31T06:09:50.798Z,15.25
2022-07-31T06:12:19.655Z,15.31
2022-07-31T06:14:46.608Z,15.39
2022-07-31T06:17:43.855Z,15.12
2022-07-31T06:20:22.350Z,15.50
2022-07-31T06:22:49.533Z,15.51
2022-07-31T06:25:16.728Z,15.65
2022-07-31T06:27:43.917Z,15.73
2022-07-31T06:30:15.246Z,15.81
2022-07-31T06:32:42.657Z,15.80
2022-07-31T06:35:10.635Z,15.95
2022-07-31T06:37:57.146Z,16.04
2022-07-31T06:40:25.192Z,16.11
2022-07-31T06:43:30.600Z,16.22
2022-07-31T06:46:23.762Z,16.21
2022-07-31T06:49:22.790Z,16.01
2022-07-31T06:51:50.165Z,16.28
2022-07-31T06:54:17.958Z,16.54
2022-07-31T06:56:45.265Z,16.62
2022-07-31T06:59:12.360Z,16.69
2022-07-31T07:01:59.281Z,16.51
2022-07-31T07:04:56.242Z,16.78
2022-07-31T07:07:55.385Z,16.64
2022-07-31T07:10:42.510Z,17.05
2022-07-31T07:13:45.241Z,17.13
2022-07-31T07:16:35.929Z,17.22
2022-07-31T07:19:22.874Z,17.25
2022-07-31T07:22:09.909Z,17.06
2022-07-31T07:24:57.295Z,17.46
2022-07-31T07:27:44.409Z,17.48
2022-07-31T07:30:31.468Z,17.59
2022-07-31T07:33:39.642Z,17.71
2022-07-31T07:36:28.197Z,17.59
2022-07-31T07:39:18.343Z,17.86
2022-07-31T07:42:06.043Z,17.82
2022-07-31T07:44:53.867Z,18.01
2022-07-31T07:48:02.808Z,18.04
2022-07-31T07:50:49.507Z,18.14
2022-07-31T07:53:51.154Z,18.18
2022-07-31T07:56:56.563Z,18.05
2022-07-31T08:00:12.714Z,18.35
2022-07-31T08:03:51.456Z,18.33
2022-07-31T08:06:20.699Z,18.48
2022-07-31T08:09:08.192Z,18.53
2022-07-31T08:12:13.463Z,18.56
2022-07-31T08:15:27.094Z,18.65
2022-07-31T08:18:29.686Z,18.72
2022-07-31T08:21:18.677Z,18.64
2022-07-31T08:24:07.097Z,18.86
2022-07-31T08:26:53.121Z,18.93
2022-07-31T08:29:40.056Z,19.00
2022-07-31T08:32:37.258Z,19.05
2022-07-31T08:35:50.578Z,19.11
2022-07-31T08:38:39.521Z,19.14
2022-07-31T08:42:02.143Z,19.20
2022-07-31T08:44:49.772Z,19.26
2022-07-31T08:47:41.468Z,19.31
2022-07-31T08:50:34.934Z,19.34
2022-07-31T08:53:24.627Z,19.38
2022-07-31T08:56:17.713Z,19.42
2022-07-31T08:59:04.779Z,19.30
2022-07-31T09:01:56.933Z,19.54
2022-07-31T09:04:49.280Z,19.60
2022-07-31T09:07:38.970Z,19.65
2022-07-31T09:10:40.813Z,19.65
2022-07-31T09:13:38.534Z,19.74
2022-07-31T09:16:44.076Z,19.59
2022-07-31T09:19:51.674Z,19.86
2022-07-31T09:22:45.955Z,19.92
2022-07-31T09:25:36.284Z,19.84
2022-07-31T09:28:25.558Z,20.07
2022-07-31T09:31:15.638Z,20.07
2022-07-31T09:34:03.985Z,20.19
2022-07-31T09:36:53.853Z,20.31
2022-07-31T09:40:14.651Z,20.36
2022-07-31T09:43:43.625Z,20.42
2022-07-31T09:46:39.197Z,20.34
2022-07-31T09:49:26.218Z,20.42
2022-07-31T09:52:13.094Z,20.54
2022-07-31T09:55:00.397Z,20.61
2022-07-31T09:57:50.251Z,20.72
2022-07-31T10:00:37.567Z,20.73
2022-07-31T10:03:25.828Z,20.94
2022-07-31T10:06:16.322Z,20.87
2022-07-31T10:09:04.999Z,21.19
2022-07-31T10:12:19.977Z,21.22
2022-07-31T10:15:08.741Z,21.40
2022-07-31T10:17:59.282Z,21.44
2022-07-31T10:21:09.338Z,21.68
2022-07-31T10:24:28.111Z,21.81
2022-07-31T10:27:18.375Z,21.69
2022-07-31T10:30:09.894Z,21.88
2022-07-31T10:33:03.085Z,21.88
2022-07-31T10:36:17.958Z,22.03
2022-07-31T10:39:47.682Z,22.16
2022-07-31T10:43:15.661Z,22.23
2022-07-31T10:46:13.860Z,22.35
2022-07-31T10:49:24.656Z,22.44
2022-07-31T10:52:51.641Z,22.50
2022-07-31T10:55:48.216Z,22.58
2022-07-31T10:58:50.384Z,22.66
2022-07-31T11:02:10.557Z,22.76
2022-07-31T11:05:04.136Z,22.75
2022-07-31T11:07:58.211Z,22.87
2022-07-31T11:11:12.949Z,22.97
2022-07-31T11:14:21.037Z,22.89
2022-07-31T11:18:21.970Z,23.14
2022-07-31T11:20:50.191Z,23.32
2022-07-31T11:23:37.581Z,23.45
2022-07-31T11:26:33.077Z,23.55
2022-07-31T11:30:00.933Z,23.59
2022-07-31T11:32:35.896Z,23.48
2022-07-31T11:35:22.999Z,23.71
2022-07-31T11:37:58.182Z,23.65
2022-07-31T11:40:27.792Z,23.76
2022-07-31T11:43:24.660Z,23.79
2022-07-31T11:45:48.990Z,23.85
2022-07-31T11:48:19.291Z,23.88
2022-07-31T11:50:47.974Z,23.92
2022-07-31T11:53:15.894Z,23.93
2022-07-31T11:55:53.952Z,23.93
2022-07-31T11:58:22.763Z,24.04
2022-07-31T12:01:01.121Z,24.12
2022-07-31T12:03:38.828Z,24.14
2022-07-31T12:06:07.753Z,24.10
2022-07-31T12:08:35.657Z,24.21
2022-07-31T12:11:04.964Z,24.21
2022-07-31T12:13:32.472Z,24.23
2022-07-31T12:16:04.321Z,24.22
2022-07-31T12:18:46.241Z,24.16
2022-07-31T12:21:13.733Z,24.27
2022-07-31T12:23:46.587Z,24.39
2022-07-31T12:26:33.808Z,24.32
2022-07-31T12:29:06.777Z,24.34
2022-07-31T12:32:15.038Z,24.26
2022-07-31T12:34:42.698Z,24.19
2022-07-31T12:37:15.230Z,24.14
2022-07-31T12:40:00.964Z,23.92
2022-07-31T12:42:41.535Z,23.93
2022-07-31T12:45:19.152Z,23.86
2022-07-31T12:47:52.078Z,23.80
2022-07-31T12:50:21.497Z,23.58
2022-07-31T12:52:48.718Z,23.72
2022-07-31T12:55:17.239Z,23.61
2022-07-31T12:57:50.942Z,23.73
2022-07-31T13:00:22.685Z,23.67
2022-07-31T13:02:53.822Z,23.63
2022-07-31T13:05:22.227Z,23.59
2022-07-31T13:07:49.568Z,23.51
2022-07-31T13:10:23.895Z,23.37
2022-07-31T13:12:52.486Z,23.41
2022-07-31T13:15:23.419Z,23.37
2022-07-31T13:17:51.204Z,23.32
2022-07-31T13:20:19.157Z,23.21
2022-07-31T13:22:46.365Z,23.13
2022-07-31T13:25:13.810Z,23.01
2022-07-31T13:27:41.834Z,22.93
2022-07-31T13:30:09.681Z,22.66
2022-07-31T13:32:36.840Z,22.80
2022-07-31T13:35:25.951Z,22.67
2022-07-31T13:37:53.553Z,22.65
2022-07-31T13:40:40.872Z,22.55
2022-07-31T13:43:08.115Z,22.30
2022-07-31T13:45:35.647Z,22.31
2022-07-31T13:48:06.817Z,22.43
2022-07-31T13:50:37.523Z,22.39
2022-07-31T13:53:05.230Z,22.36
2022-07-31T13:55:32.390Z,22.29
2022-07-31T13:58:01.533Z,22.12
2022-07-31T14:00:29.964Z,22.20
2022-07-31T14:02:57.788Z,22.16
2022-07-31T14:05:26.434Z,21.92
2022-07-31T14:07:54.832Z,22.01
2022-07-31T14:10:22.744Z,21.99
2022-07-31T14:12:50.507Z,21.93
2022-07-31T14:15:20.205Z,21.85
2022-07-31T14:17:47.217Z,21.77
2022-07-31T14:20:14.287Z,21.73
2022-07-31T14:22:42.705Z,21.71
2022-07-31T14:25:10.347Z,21.66
2022-07-31T14:27:38.754Z,21.62
2022-07-31T14:30:09.612Z,21.55
2022-07-31T14:32:36.907Z,21.46
2022-07-31T14:35:08.303Z,21.48
2022-07-31T14:37:35.796Z,21.24
2022-07-31T14:40:04.751Z,21.40
2022-07-31T14:42:32.386Z,21.35
2022-07-31T14:44:59.954Z,21.31
2022-07-31T14:47:27.000Z,21.28
2022-07-31T14:50:09.647Z,21.13
2022-07-31T14:52:37.980Z,21.18
2022-07-31T14:55:05.805Z,20.98
2022-07-31T14:57:32.954Z,20.91
2022-07-31T15:00:00.329Z,20.92
2022-07-31T15:02:27.498Z,21.10
2022-07-31T15:04:54.649Z,21.08
2022-07-31T15:07:41.307Z,20.80
2022-07-31T15:10:10.381Z,21.00
2022-07-31T15:12:37.454Z,20.89
2022-07-31T15:15:05.552Z,21.08
2022-07-31T15:17:32.644Z,20.92
2022-07-31T15:19:59.651Z,21.02
2022-07-31T15:22:26.790Z,20.98
2022-07-31T15:24:53.770Z,21.05
2022-07-31T15:27:25.094Z,21.02
2022-07-31T15:30:00.366Z,20.96
2022-07-31T15:32:34.511Z,21.07
2022-07-31T15:35:02.256Z,21.04
2022-07-31T15:37:30.269Z,21.13
2022-07-31T15:40:02.593Z,21.13
2022-07-31T15:42:37.146Z,21.24
2022-07-31T15:45:04.848Z,21.17
2022-07-31T15:47:32.112Z,21.39
2022-07-31T15:49:59.472Z,21.41
2022-07-31T15:52:26.940Z,21.49
2022-07-31T15:54:54.108Z,21.54
2022-07-31T15:57:21.691Z,21.56
2022-07-31T15:59:49.858Z,21.56
2022-07-31T16:02:17.563Z,21.66
2022-07-31T16:04:53.304Z,21.74
2022-07-31T16:08:33.188Z,21.86
2022-07-31T16:10:16.797Z,22.00
2022-07-31T16:12:48.228Z,22.11
2022-07-31T16:15:17.069Z,22.20
2022-07-31T16:17:45.034Z,22.10
2022-07-31T16:20:25.991Z,22.41
2022-07-31T16:23:19.738Z,22.49
2022-07-31T16:26:06.655Z,22.53
2022-07-31T16:28:33.717Z,22.60
2022-07-31T16:31:01.116Z,22.71
2022-07-31T16:33:28.153Z,22.75
2022-07-31T16:35:55.644Z,22.74
2022-07-31T16:38:22.733Z,22.69
2022-07-31T16:40:53.308Z,22.93
2022-07-31T16:43:49.273Z,22.94
2022-07-31T16:46:07.920Z,22.73
2022-07-31T16:48:35.064Z,22.93
2022-07-31T16:51:02.030Z,22.61
2022-07-31T16:54:11.609Z,22.93
2022-07-31T16:56:17.240Z,22.94
2022-07-31T16:58:44.419Z,22.96
2022-07-31T17:01:54.146Z,22.88
2022-07-31T17:04:03.519Z,22.91
2022-07-31T17:06:37.966Z,23.00
2022-07-31T17:09:16.805Z,23.04
2022-07-31T17:11:50.140Z,22.93
2022-07-31T17:14:18.528Z,23.05
2022-07-31T17:16:48.160Z,23.07
2022-07-31T17:19:35.852Z,22.99
2022-07-31T17:22:04.412Z,22.86
2022-07-31T17:24:32.135Z,23.09
2022-07-31T17:26:59.837Z,23.19
2022-07-31T17:29:26.918Z,23.07
2022-07-31T17:31:53.945Z,23.07
2022-07-31T17:34:20.886Z,23.12
2022-07-31T17:36:50.192Z,23.16
2022-07-31T17:39:17.401Z,23.29
2022-07-31T17:41:44.412Z,23.54
2022-07-31T17:44:11.466Z,23.96
2022-07-31T17:46:43.858Z,24.65
2022-07-31T17:49:20.404Z,25.15
2022-07-31T17:51:59.783Z,25.36
2022-07-31T17:54:29.006Z,25.68
2022-07-31T17:56:56.136Z,25.92
2022-07-31T17:59:23.332Z,25.95
2022-07-31T18:01:52.334Z,25.97
2022-07-31T18:04:21.309Z,25.87
2022-07-31T18:06:54.438Z,25.45
2022-07-31T18:09:23.845Z,24.94
2022-07-31T18:11:51.968Z,24.53
2022-07-31T18:14:19.228Z,24.10
2022-07-31T18:16:47.908Z,23.68
2022-07-31T18:19:15.629Z,23.34
2022-07-31T18:21:42.580Z,23.03
2022-07-31T18:24:09.873Z,22.67
2022-07-31T18:26:37.506Z,22.40
2022-07-31T18:29:05.549Z,22.24
2022-07-31T18:31:35.393Z,22.02
2022-07-31T18:34:06.159Z,21.79
2022-07-31T18:36:35.055Z,21.40
2022-07-31T18:39:04.202Z,21.47
2022-07-31T18:41:31.667Z,21.29
2022-07-31T18:43:58.828Z,21.20
2022-07-31T18:46:26.545Z,21.03
2022-07-31T18:48:55.898Z,20.90
2022-07-31T18:51:28.406Z,20.83
2022-07-31T18:53:56.313Z,20.74
2022-07-31T18:56:24.920Z,20.63
2022-07-31T18:58:52.580Z,20.53
2022-07-31T19:01:20.073Z,20.45
2022-07-31T19:03:47.166Z,20.36
2022-07-31T19:06:14.546Z,20.25
2022-07-31T19:08:41.592Z,20.14
2022-07-31T19:11:08.565Z,19.97
2022-07-31T19:13:35.735Z,19.99
2022-07-31T19:16:02.767Z,19.90
2022-07-31T19:18:29.847Z,19.78
2022-07-31T19:21:19.090Z,19.76
2022-07-31T19:23:47.812Z,19.69
2022-07-31T19:26:15.372Z,19.63
2022-07-31T19:28:45.526Z,19.58
2022-07-31T19:31:13.332Z,19.48
2022-07-31T19:33:41.185Z,19.42
2022-07-31T19:36:10.713Z,19.45
2022-07-31T19:38:38.232Z,19.41
2022-07-31T19:41:05.629Z,19.36
2022-07-31T19:43:33.283Z,19.32
2022-07-31T19:46:11.680Z,19.28
2022-07-31T19:48:48.550Z,19.22
2022-07-31T19:51:16.601Z,19.20
2022-07-31T19:53:44.879Z,19.16
2022-07-31T19:56:19.741Z,19.08
2022-07-31T19:58:48.109Z,19.05
2022-07-31T20:01:15.342Z,18.99
2022-07-31T20:03:42.443Z,18.89
2022-07-31T20:06:09.577Z,18.83
2022-07-31T20:08:36.668Z,18.77
2022-07-31T20:11:05.458Z,18.74
2022-07-31T20:13:34.228Z,18.69
2022-07-31T20:16:01.968Z,18.63
2022-07-31T20:18:29.950Z,18.58
2022-07-31T20:21:00.182Z,18.55
2022-07-31T20:23:27.901Z,18.50
2022-07-31T20:25:55.118Z,18.36
2022-07-31T20:28:22.140Z,18.36
2022-07-31T20:30:49.707Z,18.31
2022-07-31T20:33:16.670Z,18.25
2022-07-31T20:35:47.544Z,18.13
2022-07-31T20:38:21.361Z,18.14
2022-07-31T20:40:53.850Z,18.10
2022-07-31T20:43:24.317Z,18.10
2022-07-31T20:45:51.926Z,18.05
2022-07-31T20:48:19.065Z,18.01
2022-07-31T20:50:47.827Z,17.97
2022-07-31T20:53:16.877Z,17.92
2022-07-31T20:55:49.496Z,17.88
2022-07-31T20:58:21.082Z,17.76
2022-07-31T21:00:49.503Z,17.78
2022-07-31T21:03:19.318Z,17.43
2022-07-31T21:05:47.076Z,17.68
2022-07-31T21:08:14.117Z,17.66
2022-07-31T21:10:41.391Z,17.39
2022-07-31T21:13:09.583Z,17.59
2022-07-31T21:15:44.167Z,17.58
2022-07-31T21:18:17.110Z,17.56
2022-07-31T21:20:52.211Z,17.56
2022-07-31T21:23:29.558Z,17.54
2022-07-31T21:25:58.453Z,17.49
2022-07-31T21:28:27.323Z,17.20
2022-07-31T21:30:56.525Z,17.48
2022-07-31T21:33:25.146Z,17.49
2022-07-31T21:35:52.486Z,17.33
2022-07-31T21:38:19.950Z,17.46
2022-07-31T21:40:47.798Z,17.44
2022-07-31T21:43:18.527Z,17.43
2022-07-31T21:45:54.969Z,17.36
2022-07-31T21:48:25.280Z,17.37
2022-07-31T21:50:55.264Z,17.35
2022-07-31T21:53:23.559Z,17.33
2022-07-31T21:55:50.922Z,17.29
2022-07-31T21:58:18.221Z,17.17
2022-07-31T22:00:45.454Z,17.23
2022-07-31T22:03:12.575Z,17.12
2022-07-31T22:05:58.685Z,17.15
2022-07-31T22:08:25.754Z,17.16
2022-07-31T22:10:53.560Z,17.14
2022-07-31T22:13:21.256Z,17.12
2022-07-31T22:15:54.240Z,17.10
2022-07-31T22:18:29.188Z,17.07
2022-07-31T22:20:56.887Z,17.03
2022-07-31T22:23:24.221Z,17.03
2022-07-31T22:25:51.340Z,17.01
2022-07-31T22:28:20.804Z,17.00
2022-07-31T22:30:48.430Z,16.80
2022-07-31T22:33:15.631Z,16.97
2022-07-31T22:35:42.839Z,16.95
2022-07-31T22:38:12.876Z,16.93
2022-07-31T22:40:40.156Z,16.91
2022-07-31T22:44:11.214Z,16.68
2022-07-31T22:46:00.771Z,16.87
2022-07-31T22:48:28.545Z,16.86
2022-07-31T22:50:56.009Z,16.84
2022-07-31T22:53:24.197Z,16.81
2022-07-31T22:55:55.249Z,16.80
2022-07-31T22:58:22.828Z,16.67
2022-07-31T23:00:50.484Z,16.76
2022-07-31T23:03:17.545Z,16.72
2022-07-31T23:06:29.353Z,16.75
2022-07-31T23:08:31.665Z,16.72
2022-07-31T23:10:58.565Z,16.73
2022-07-31T23:13:25.641Z,16.74
2022-07-31T23:15:52.781Z,16.73
2022-07-31T23:18:19.681Z,16.73
2022-07-31T23:20:46.625Z,16.73
2022-07-31T23:23:13.972Z,16.73
2022-07-31T23:25:40.954Z,16.43
2022-07-31T23:28:08.003Z,16.69
2022-07-31T23:30:35.089Z,16.68
2022-07-31T23:33:02.397Z,16.75
2022-07-31T23:35:29.359Z,16.75
2022-07-31T23:37:56.428Z,16.77
2022-07-31T23:40:23.512Z,16.73
2022-07-31T23:42:50.398Z,16.79
2022-07-31T23:45:17.534Z,16.79
2022-07-31T23:47:45.570Z,16.84
2022-07-31T23:50:15.029Z,16.85
2022-07-31T23:52:43.216Z,16.88
2022-07-31T23:55:10.696Z,16.89
2022-07-31T23:57:38.147Z,16.82
